createdAt,value
2022-08-23T00:02:22.837Z,63.29
2022-08-23T00:04:53.244Z,63.38
2022-08-23T00:07:38.261Z,63.00
2022-08-23T00:10:06.081Z,62.88
2022-08-23T00:12:33.112Z,63.47
2022-08-23T00:14:59.688Z,62.96
2022-08-23T00:17:34.299Z,63.22
2022-08-23T00:20:11.590Z,63.06
2022-08-23T00:22:38.285Z,63.28
2022-08-23T00:25:09.254Z,63.41
2022-08-23T00:27:35.900Z,63.29
2022-08-23T00:30:02.850Z,63.47
2022-08-23T00:32:31.868Z,63.04
2022-08-23T00:34:59.565Z,63.28
2022-08-23T00:37:26.384Z,63.38
2022-08-23T00:39:53.078Z,63.34
2022-08-23T00:42:56.194Z,63.27
2022-08-23T00:46:16.993Z,63.40
2022-08-23T00:48:43.560Z,63.17
2022-08-23T00:51:23.716Z,62.93
2022-08-23T00:53:52.523Z,63.46
2022-08-23T00:56:20.410Z,63.14
2022-08-23T00:58:47.063Z,63.65
2022-08-23T01:01:14.425Z,63.34
2022-08-23T01:03:43.205Z,63.00
2022-08-23T01:06:19.622Z,63.56
2022-08-23T01:08:51.249Z,63.48
2022-08-23T01:11:23.824Z,63.25
2022-08-23T01:13:57.369Z,63.42
2022-08-23T01:16:36.896Z,63.42
2022-08-23T01:19:03.953Z,63.36
2022-08-23T01:21:33.670Z,63.75
2022-08-23T01:24:03.415Z,63.57
2022-08-23T01:26:34.977Z,63.43
2022-08-23T01:29:03.047Z,63.20
2022-08-23T01:31:29.709Z,63.49
2022-08-23T01:34:02.289Z,63.21
2022-08-23T01:36:29.092Z,63.24
2022-08-23T01:38:55.867Z,63.55
2022-08-23T01:41:22.460Z,63.51
2022-08-23T01:43:49.145Z,63.40
2022-08-23T01:46:18.106Z,63.13
2022-08-23T01:48:46.228Z,63.16
2022-08-23T01:51:14.385Z,63.58
2022-08-23T02:42:53.881Z,63.52
2022-08-23T02:45:21.390Z,63.60
2022-08-23T02:47:48.064Z,63.88
2022-08-23T02:50:14.618Z,63.63
2022-08-23T02:52:41.178Z,63.83
2022-08-23T02:55:08.235Z,63.78
2022-08-23T02:57:34.790Z,63.64
2022-08-23T03:00:01.378Z,63.51
2022-08-23T03:02:29.984Z,63.55
2022-08-23T03:04:56.594Z,63.88
2022-08-23T03:07:23.160Z,64.03
2022-08-23T03:09:49.792Z,63.83
2022-08-23T03:12:16.392Z,63.93
2022-08-23T03:14:42.951Z,63.57
2022-08-23T03:17:09.481Z,63.74
2022-08-23T03:19:36.060Z,64.02
2022-08-23T03:24:36.684Z,64.13
2022-08-23T03:27:04.014Z,64.09
2022-08-23T03:29:31.867Z,64.13
2022-08-23T03:31:59.200Z,64.00
2022-08-23T03:34:25.784Z,64.05
2022-08-23T03:36:52.432Z,64.16
2022-08-23T03:39:18.973Z,63.75
2022-08-23T03:41:45.533Z,64.12
2022-08-23T03:44:12.056Z,64.05
2022-08-23T03:46:38.619Z,64.19
2022-08-23T03:49:05.227Z,64.13
2022-08-23T03:51:31.832Z,64.02
2022-08-23T03:53:58.444Z,63.85
2022-08-23T03:56:28.433Z,63.87
2022-08-23T03:58:55.209Z,64.01
2022-08-23T04:01:26.527Z,64.01
2022-08-23T04:03:55.228Z,64.21
2022-08-23T04:06:21.765Z,64.07
2022-08-23T04:08:48.361Z,63.90
2022-08-23T04:11:15.332Z,64.23
2022-08-23T04:13:42.345Z,64.27
2022-08-23T04:16:09.176Z,63.91
2022-08-23T04:18:36.710Z,63.68
2022-08-23T04:21:07.341Z,64.31
2022-08-23T04:23:33.906Z,63.94
2022-08-23T04:26:00.437Z,63.87
2022-08-23T04:28:28.440Z,63.85
2022-08-23T04:30:55.323Z,64.30
2022-08-23T04:33:22.368Z,63.86
2022-08-23T04:35:48.893Z,64.07
2022-08-23T04:38:24.304Z,63.89
2022-08-23T04:41:11.324Z,63.97
2022-08-23T04:43:38.531Z,61.62
2022-08-23T04:46:05.658Z,58.49
2022-08-23T04:48:33.308Z,56.38
2022-08-23T04:50:59.910Z,55.90
2022-08-23T04:53:26.556Z,54.92
2022-08-23T04:55:53.109Z,54.94
2022-08-23T04:58:19.637Z,54.36
2022-08-23T05:00:51.502Z,54.11
2022-08-23T05:03:18.454Z,53.89
2022-08-23T05:05:45.005Z,53.65
2022-08-23T05:08:11.597Z,53.47
2022-08-23T05:10:38.235Z,54.03
2022-08-23T05:13:04.793Z,54.20
2022-08-23T05:15:31.364Z,54.71
2022-08-23T05:17:57.993Z,55.05
2022-08-23T05:20:24.575Z,55.32
2022-08-23T05:22:51.365Z,55.79
2022-08-23T05:25:18.008Z,56.44
2022-08-23T05:27:44.517Z,56.13
2022-08-23T05:30:15.277Z,56.23
2022-08-23T05:32:42.176Z,56.01
2022-08-23T05:35:09.081Z,56.12
2022-08-23T05:37:35.609Z,55.88
2022-08-23T05:40:02.427Z,55.78
2022-08-23T05:42:29.024Z,55.58
2022-08-23T05:44:55.673Z,55.42
2022-08-23T05:47:24.998Z,55.09
2022-08-23T05:49:51.809Z,55.25
2022-08-23T05:52:18.340Z,55.13
2022-08-23T05:54:45.063Z,55.61
2022-08-23T05:57:11.636Z,55.99
2022-08-23T05:59:38.243Z,56.40
2022-08-23T06:02:04.854Z,57.00
2022-08-23T06:04:31.433Z,56.74
2022-08-23T06:06:58.940Z,57.10
2022-08-23T06:09:25.687Z,56.31
2022-08-23T06:11:52.705Z,56.75
2022-08-23T06:14:19.351Z,56.72
2022-08-23T06:16:53.625Z,57.10
2022-08-23T06:19:22.835Z,57.43
2022-08-23T06:21:49.518Z,57.90
2022-08-23T06:24:16.110Z,57.67
2022-08-23T06:26:43.495Z,57.62
2022-08-23T06:29:11.840Z,57.55
2022-08-23T06:31:47.305Z,58.10
2022-08-23T06:34:29.533Z,58.15
2022-08-23T06:36:57.752Z,58.51
2022-08-23T06:39:26.599Z,58.38
2022-08-23T06:41:53.270Z,58.36
2022-08-23T06:44:19.920Z,58.51
2022-08-23T06:46:48.009Z,58.70
2022-08-23T06:49:14.643Z,58.85
2022-08-23T06:51:46.723Z,59.33
2022-08-23T06:54:14.207Z,59.00
2022-08-23T06:56:41.097Z,59.27
2022-08-23T06:59:07.763Z,59.52
2022-08-23T07:01:45.590Z,59.73
2022-08-23T07:04:14.153Z,59.40
2022-08-23T07:06:40.852Z,59.97
2022-08-23T07:09:07.417Z,59.96
2022-08-23T07:11:33.965Z,60.26
2022-08-23T07:14:01.244Z,59.98
2022-08-23T07:16:57.745Z,60.07
2022-08-23T07:19:30.058Z,60.04
2022-08-23T07:21:57.635Z,59.96
2022-08-23T07:24:27.221Z,59.91
2022-08-23T07:26:57.341Z,59.22
2022-08-23T07:29:23.921Z,58.93
2022-08-23T07:31:53.349Z,59.03
2022-08-23T07:34:20.918Z,59.57
2022-08-23T07:36:48.173Z,59.75
2022-08-23T07:39:15.017Z,59.69
2022-08-23T07:41:41.951Z,59.22
2022-08-23T07:44:09.429Z,59.30
2022-08-23T07:46:37.497Z,59.43
2022-08-23T07:49:04.305Z,59.18
2022-08-23T07:51:31.537Z,59.26
2022-08-23T07:53:58.149Z,59.27
2022-08-23T07:56:25.034Z,59.10
2022-08-23T07:58:51.592Z,59.23
2022-08-23T08:01:20.348Z,59.15
2022-08-23T08:03:48.533Z,58.70
2022-08-23T08:06:18.855Z,58.43
2022-08-23T08:08:45.516Z,58.55
2022-08-23T08:11:12.744Z,58.84
2022-08-23T08:13:43.116Z,59.04
2022-08-23T08:16:09.866Z,58.60
2022-08-23T08:18:36.995Z,59.05
2022-08-23T08:21:06.651Z,59.16
2022-08-23T08:23:34.379Z,58.74
2022-08-23T08:26:02.430Z,58.75
2022-08-23T08:28:29.048Z,59.11
2022-08-23T08:30:55.695Z,58.73
2022-08-23T08:33:22.244Z,59.09
2022-08-23T08:36:00.262Z,58.97
2022-08-23T08:38:30.789Z,58.54
2022-08-23T08:41:16.075Z,58.93
2022-08-23T08:43:58.001Z,59.00
2022-08-23T08:46:39.171Z,58.98
2022-08-23T08:49:05.949Z,58.92
2022-08-23T08:51:48.053Z,58.93
2022-08-23T08:54:16.549Z,59.19
2022-08-23T08:56:43.153Z,58.91
2022-08-23T08:59:24.501Z,59.14
2022-08-23T09:01:51.500Z,59.04
2022-08-23T09:04:18.199Z,59.18
2022-08-23T09:06:47.520Z,59.38
2022-08-23T09:09:48.222Z,59.27
2022-08-23T09:12:21.097Z,59.39
2022-08-23T09:15:12.977Z,59.24
2022-08-23T09:17:59.755Z,59.56
2022-08-23T09:20:32.964Z,59.58
2022-08-23T09:23:15.266Z,59.80
2022-08-23T09:25:41.983Z,59.41
2022-08-23T09:28:08.680Z,59.64
2022-08-23T09:30:53.106Z,59.61
2022-08-23T09:33:21.853Z,59.66
2022-08-23T09:36:14.963Z,59.86
2022-08-23T09:39:01.893Z,59.44
2022-08-23T09:41:41.049Z,59.72
2022-08-23T09:44:09.589Z,59.57
2022-08-23T09:46:39.092Z,59.88
2022-08-23T09:49:34.899Z,59.97
2022-08-23T09:52:32.245Z,59.55
2022-08-23T09:55:02.656Z,59.63
2022-08-23T09:57:30.616Z,59.51
2022-08-23T10:00:18.467Z,59.98
2022-08-23T10:02:45.033Z,59.36
2022-08-23T10:05:29.805Z,59.87
2022-08-23T10:08:00.632Z,59.59
2022-08-23T10:10:37.614Z,59.54
2022-08-23T10:13:04.468Z,59.66
2022-08-23T10:15:40.340Z,59.89
2022-08-23T10:18:33.352Z,59.91
2022-08-23T10:21:21.150Z,59.89
2022-08-23T10:23:50.355Z,59.81
2022-08-23T10:26:39.380Z,59.48
2022-08-23T10:29:35.346Z,59.55
2022-08-23T10:32:22.044Z,59.74
2022-08-23T10:34:51.156Z,59.58
2022-08-23T10:37:39.577Z,59.33
2022-08-23T10:40:25.939Z,59.63
2022-08-23T10:42:53.306Z,59.49
2022-08-23T10:45:22.641Z,59.30
2022-08-23T10:48:05.553Z,59.80
2022-08-23T10:50:43.634Z,59.46
2022-08-23T10:53:22.198Z,59.34
2022-08-23T10:56:03.304Z,59.26
2022-08-23T10:58:41.115Z,59.63
2022-08-23T11:01:08.146Z,59.90
2022-08-23T11:03:47.725Z,59.65
2022-08-23T11:06:37.870Z,59.90
2022-08-23T11:09:04.316Z,59.77
2022-08-23T11:11:49.261Z,59.88
2022-08-23T11:14:42.879Z,59.50
2022-08-23T11:17:12.596Z,59.79
2022-08-23T11:20:09.880Z,59.89
2022-08-23T11:22:58.308Z,59.84
2022-08-23T11:25:24.717Z,59.52
2022-08-23T11:27:51.337Z,60.15
2022-08-23T11:30:33.236Z,59.61
2022-08-23T11:33:10.349Z,59.75
2022-08-23T11:35:50.068Z,59.49
2022-08-23T11:38:22.460Z,59.97
2022-08-23T11:40:52.302Z,59.77
2022-08-23T11:43:36.676Z,59.70
2022-08-23T11:46:36.297Z,59.97
2022-08-23T11:49:30.902Z,60.04
2022-08-23T11:52:37.057Z,59.75
2022-08-23T11:55:24.620Z,59.87
2022-08-23T11:57:57.105Z,60.26
2022-08-23T12:00:53.178Z,60.22
2022-08-23T12:03:34.172Z,60.19
2022-08-23T12:06:03.765Z,59.96
2022-08-23T12:08:46.592Z,60.13
2022-08-23T12:11:13.676Z,60.13
2022-08-23T12:13:48.012Z,60.09
2022-08-23T12:16:16.430Z,60.11
2022-08-23T12:18:47.552Z,60.13
2022-08-23T12:21:19.380Z,59.94
2022-08-23T12:23:57.352Z,60.18
2022-08-23T12:26:59.090Z,60.26
2022-08-23T12:29:37.297Z,60.06
2022-08-23T12:32:27.182Z,60.26
2022-08-23T12:35:13.511Z,59.99
2022-08-23T12:38:07.500Z,60.11
2022-08-23T12:40:43.505Z,59.93
2022-08-23T12:43:22.305Z,60.29
2022-08-23T12:45:57.756Z,60.55
2022-08-23T12:48:27.029Z,60.59
2022-08-23T12:51:11.553Z,60.46
2022-08-23T12:53:44.512Z,60.71
2022-08-23T12:56:17.425Z,60.38
2022-08-23T12:58:58.518Z,60.30
2022-08-23T13:01:29.863Z,60.43
2022-08-23T13:04:02.744Z,60.67
2022-08-23T13:06:33.414Z,60.59
2022-08-23T13:09:16.716Z,60.70
2022-08-23T13:11:43.412Z,60.34
2022-08-23T13:14:42.304Z,60.45
2022-08-23T13:17:14.662Z,60.71
2022-08-23T13:19:41.342Z,60.52
2022-08-23T13:22:22.829Z,60.28
2022-08-23T13:25:28.070Z,60.17
2022-08-23T13:27:53.507Z,60.18
2022-08-23T13:30:23.104Z,60.17
2022-08-23T13:32:51.159Z,60.03
2022-08-23T13:35:23.675Z,60.36
2022-08-23T13:37:50.649Z,59.81
2022-08-23T13:40:22.849Z,59.94
2022-08-23T13:42:53.163Z,59.84
2022-08-23T13:45:24.653Z,60.03
2022-08-23T13:47:55.125Z,60.19
2022-08-23T13:50:40.022Z,60.14
2022-08-23T13:53:23.670Z,60.21
2022-08-23T13:55:54.946Z,60.34
2022-08-23T13:58:27.589Z,60.64
2022-08-23T14:00:55.762Z,59.93
2022-08-23T14:03:23.500Z,60.41
2022-08-23T14:05:50.079Z,60.29
2022-08-23T14:08:16.656Z,60.39
2022-08-23T14:10:43.235Z,60.13
2022-08-23T14:13:11.237Z,60.24
2022-08-23T14:18:24.980Z,60.55
2022-08-23T14:20:52.107Z,60.30
2022-08-23T14:23:18.981Z,60.29
2022-08-23T14:25:45.782Z,60.57
2022-08-23T14:28:12.700Z,60.20
2022-08-23T14:30:39.512Z,60.45
2022-08-23T14:33:06.367Z,60.51
2022-08-23T14:35:33.019Z,60.56
2022-08-23T14:38:03.218Z,60.48
2022-08-23T14:40:30.525Z,60.47
2022-08-23T14:42:57.212Z,60.67
2022-08-23T14:45:23.928Z,60.69
2022-08-23T14:47:50.527Z,60.40
2022-08-23T14:50:17.079Z,60.66
2022-08-23T14:52:45.773Z,60.36
2022-08-23T14:55:12.556Z,60.48
2022-08-23T14:57:39.256Z,60.50
2022-08-23T15:00:07.205Z,60.71
2022-08-23T15:02:36.367Z,60.42
2022-08-23T15:05:03.343Z,60.46
2022-08-23T15:07:29.864Z,60.55
2022-08-23T15:09:56.431Z,60.53
2022-08-23T15:15:12.740Z,60.68
2022-08-23T15:17:48.433Z,60.67
2022-08-23T15:20:15.381Z,60.43
2022-08-23T15:22:45.134Z,60.76
2022-08-23T15:25:29.626Z,60.68
2022-08-23T15:27:56.203Z,60.45
2022-08-23T15:30:23.496Z,60.68
2022-08-23T15:32:52.751Z,60.41
2022-08-23T15:35:23.431Z,60.49
2022-08-23T15:37:49.969Z,60.46
2022-08-23T15:40:16.714Z,60.84
2022-08-23T15:42:43.312Z,60.85
2022-08-23T15:45:10.344Z,60.52
2022-08-23T15:48:01.755Z,60.90
2022-08-23T15:50:30.992Z,60.62
2022-08-23T15:52:57.783Z,60.92
2022-08-23T15:55:24.856Z,60.83
2022-08-23T15:57:52.359Z,60.44
2022-08-23T16:00:20.051Z,60.43
2022-08-23T16:03:14.424Z,60.35
2022-08-23T16:05:33.178Z,60.86
2022-08-23T16:07:59.748Z,60.60
2022-08-23T16:10:28.390Z,60.97
2022-08-23T16:12:55.331Z,60.46
2022-08-23T16:15:22.178Z,60.28
2022-08-23T16:17:48.713Z,60.72
2022-08-23T16:20:15.280Z,60.68
2022-08-23T16:22:41.882Z,60.41
2022-08-23T16:25:08.886Z,60.55
2022-08-23T16:27:35.560Z,60.79
2022-08-23T16:30:03.082Z,60.75
2022-08-23T16:32:29.620Z,60.62
2022-08-23T16:34:56.168Z,60.61
2022-08-23T16:37:22.692Z,60.13
2022-08-23T16:39:49.493Z,59.05
2022-08-23T16:42:16.124Z,58.97
2022-08-23T16:44:42.864Z,59.29
2022-08-23T16:47:09.928Z,59.24
2022-08-23T16:49:37.115Z,59.11
2022-08-23T16:52:03.928Z,58.06
2022-08-23T16:54:30.499Z,58.10
2022-08-23T16:56:57.029Z,57.69
2022-08-23T16:59:23.631Z,57.06
2022-08-23T17:01:56.199Z,57.03
2022-08-23T17:04:24.698Z,56.74
2022-08-23T17:06:57.212Z,57.16
2022-08-23T17:09:24.780Z,56.82
2022-08-23T17:11:51.433Z,56.96
2022-08-23T17:14:17.972Z,56.52
2022-08-23T17:16:44.651Z,57.31
2022-08-23T17:19:12.008Z,57.36
2022-08-23T17:21:38.613Z,57.07
2022-08-23T17:24:05.322Z,57.48
2022-08-23T17:26:31.899Z,57.57
2022-08-23T17:28:58.480Z,57.44
2022-08-23T17:31:25.560Z,56.82
2022-08-23T17:33:52.163Z,57.10
2022-08-23T17:36:29.573Z,56.65
2022-08-23T17:38:57.208Z,56.70
2022-08-23T17:41:24.881Z,56.80
2022-08-23T17:43:51.491Z,56.70
2022-08-23T17:46:18.938Z,56.69
2022-08-23T17:48:45.572Z,57.01
2022-08-23T17:51:12.171Z,57.05
2022-08-23T17:53:38.715Z,57.11
2022-08-23T17:56:05.839Z,57.11
2022-08-23T17:58:36.807Z,57.30
2022-08-23T18:01:04.768Z,56.73
2022-08-23T18:03:31.774Z,56.59
2022-08-23T18:05:58.624Z,56.65
2022-08-23T18:08:25.215Z,57.11
2022-08-23T18:10:51.774Z,56.90
2022-08-23T18:13:18.299Z,56.88
2022-08-23T18:15:45.283Z,57.11
2022-08-23T18:18:11.815Z,56.95
2022-08-23T18:20:38.388Z,56.58
2022-08-23T18:23:04.968Z,56.64
2022-08-23T18:25:31.614Z,56.83
2022-08-23T18:28:08.167Z,57.31
2022-08-23T18:30:35.360Z,57.65
2022-08-23T18:33:02.123Z,57.76
2022-08-23T18:35:32.597Z,57.39
2022-08-23T18:37:59.174Z,58.07
2022-08-23T18:40:27.288Z,57.84
2022-08-23T18:42:53.898Z,57.74
2022-08-23T18:45:20.822Z,57.57
2022-08-23T18:47:48.579Z,57.51
2022-08-23T18:50:16.026Z,57.94
2022-08-23T18:52:42.636Z,57.49
2022-08-23T18:55:09.586Z,58.02
2022-08-23T18:57:36.143Z,57.94
2022-08-23T19:00:04.402Z,57.60
2022-08-23T19:02:31.069Z,57.49
2022-08-23T19:04:57.735Z,57.61
2022-08-23T19:07:24.295Z,57.62
2022-08-23T19:09:50.824Z,57.91
2022-08-23T19:12:17.554Z,57.84
2022-08-23T19:14:44.152Z,57.77
2022-08-23T19:17:10.752Z,58.03
2022-08-23T19:19:37.307Z,58.15
2022-08-23T19:22:04.415Z,58.21
2022-08-23T19:24:30.995Z,58.28
2022-08-23T19:26:57.588Z,58.13
2022-08-23T19:29:24.111Z,58.40
2022-08-23T19:31:50.740Z,58.22
2022-08-23T19:34:18.327Z,58.36
2022-08-23T19:36:50.330Z,58.45
2022-08-23T19:39:24.583Z,58.14
2022-08-23T19:41:51.152Z,58.14
2022-08-23T19:44:17.994Z,58.31
2022-08-23T19:46:44.764Z,58.51
2022-08-23T19:49:11.964Z,58.19
2022-08-23T19:51:38.777Z,58.67
2022-08-23T19:54:10.903Z,58.25
2022-08-23T19:56:38.984Z,58.45
2022-08-23T19:59:06.399Z,58.53
2022-08-23T20:01:32.995Z,58.66
2022-08-23T20:03:59.567Z,58.72
2022-08-23T20:06:26.784Z,58.45
2022-08-23T20:08:53.390Z,58.70
2022-08-23T20:11:20.375Z,58.83
2022-08-23T20:13:48.199Z,58.81
2022-08-23T20:16:15.081Z,58.74
2022-08-23T20:18:42.340Z,58.53
2022-08-23T20:21:08.904Z,58.10
2022-08-23T20:23:53.987Z,58.83
2022-08-23T20:26:20.543Z,58.26
2022-08-23T20:28:59.414Z,58.71
2022-08-23T20:31:29.344Z,58.37
2022-08-23T20:33:56.294Z,58.46
2022-08-23T20:36:22.923Z,58.78
2022-08-23T20:38:49.513Z,58.46
2022-08-23T20:41:16.923Z,58.70
2022-08-23T20:43:43.944Z,59.21
2022-08-23T20:46:10.557Z,58.62
2022-08-23T20:48:37.171Z,59.26
2022-08-23T20:51:05.762Z,59.27
2022-08-23T20:53:33.077Z,59.38
2022-08-23T20:55:59.653Z,58.86
2022-08-23T20:58:26.344Z,59.17
2022-08-23T21:00:53.021Z,59.15
2022-08-23T21:03:19.608Z,58.92
2022-08-23T21:05:46.156Z,58.90
2022-08-23T21:08:15.272Z,58.88
2022-08-23T21:10:44.898Z,59.01
2022-08-23T21:13:11.982Z,59.14
2022-08-23T21:15:38.551Z,59.00
2022-08-23T21:18:05.107Z,59.21
2022-08-23T21:20:31.696Z,58.97
2022-08-23T21:22:58.339Z,58.84
2022-08-23T21:25:24.916Z,59.57
2022-08-23T21:27:51.441Z,59.15
2022-08-23T21:30:17.992Z,58.90
2022-08-23T21:32:44.545Z,58.99
2022-08-23T21:35:11.456Z,59.08
2022-08-23T21:37:38.176Z,58.83
2022-08-23T21:40:05.365Z,58.90
2022-08-23T21:42:32.000Z,59.08
2022-08-23T21:44:58.599Z,58.95
2022-08-23T21:47:26.060Z,58.87
2022-08-23T21:49:53.293Z,59.29
2022-08-23T21:52:19.926Z,59.15
2022-08-23T21:54:46.512Z,59.32
2022-08-23T21:57:13.046Z,59.28
2022-08-23T21:59:39.634Z,59.44
2022-08-23T22:02:06.184Z,59.26
2022-08-23T22:04:32.764Z,59.68
2022-08-23T22:07:00.137Z,60.02
2022-08-23T22:09:31.327Z,59.77
2022-08-23T22:11:58.713Z,59.67
2022-08-23T22:14:25.561Z,59.16
2022-08-23T22:16:58.172Z,59.45
2022-08-23T22:19:24.718Z,59.57
2022-08-23T22:21:54.280Z,59.73
2022-08-23T22:24:25.565Z,59.64
2022-08-23T22:26:52.807Z,59.63
2022-08-23T22:29:19.405Z,59.77
2022-08-23T22:31:47.791Z,59.45
2022-08-23T22:34:14.351Z,59.75
2022-08-23T22:36:41.867Z,59.35
2022-08-23T22:39:08.433Z,59.72
2022-08-23T22:41:35.012Z,59.80
2022-08-23T22:44:02.741Z,59.79
2022-08-23T22:46:30.341Z,59.66
2022-08-23T22:48:57.001Z,59.69
2022-08-23T22:51:25.553Z,59.40
2022-08-23T22:53:53.739Z,59.81
2022-08-23T22:56:33.274Z,59.60
2022-08-23T22:58:59.861Z,60.01
2022-08-23T23:02:04.181Z,60.07
2022-08-23T23:04:31.140Z,60.17
2022-08-23T23:06:58.025Z,60.04
2022-08-23T23:09:24.762Z,60.20
2022-08-23T23:11:51.914Z,59.84
2022-08-23T23:14:18.890Z,59.88
2022-08-23T23:16:45.640Z,59.96
2022-08-23T23:19:30.877Z,59.86
2022-08-23T23:21:57.665Z,60.02
2022-08-23T23:24:26.549Z,59.53
2022-08-23T23:26:53.148Z,59.71
2022-08-23T23:29:19.765Z,59.65
2022-08-23T23:31:46.300Z,59.94
2022-08-23T23:34:12.886Z,59.59
2022-08-23T23:36:39.520Z,59.61
2022-08-23T23:39:06.810Z,59.96
2022-08-23T23:41:33.354Z,59.99
2022-08-23T23:44:00.098Z,59.68
2022-08-23T23:46:26.938Z,59.75
2022-08-23T23:48:53.561Z,60.00
2022-08-23T23:51:24.930Z,59.74
2022-08-23T23:53:52.406Z,60.03
2022-08-23T23:56:19.342Z,59.83
2022-08-23T23:58:46.330Z,59.92
